sensor_id;sensor_type;location;lat;lon;timestamp;P1;durP1;ratioP1;P2;durP2;ratioP2
11414;SDS011;5763;42.714;23.244;2023-03-02T00:01:39;4.53;;;3.75;;
11414;SDS011;5763;42.714;23.244;2023-03-02T00:04:10;4.53;;;3.65;;
11414;SDS011;5763;42.714;23.244;2023-03-02T00:06:39;3.97;;;3.20;;
11414;SDS011;5763;42.714;23.244;2023-03-02T00:09:08;3.67;;;3.13;;
11414;SDS011;5763;42.714;23.244;2023-03-02T00:11:34;4.13;;;3.38;;
11414;SDS011;5763;42.714;23.244;2023-03-02T00:14:03;4.25;;;3.53;;
11414;SDS011;5763;42.714;23.244;2023-03-02T00:16:30;4.82;;;4.15;;
11414;SDS011;5763;42.714;23.244;2023-03-02T00:18:57;6.03;;;3.65;;
11414;SDS011;5763;42.714;23.244;2023-03-02T00:21:24;5.90;;;3.30;;
11414;SDS011;5763;42.714;23.244;2023-03-02T00:23:51;4.53;;;3.78;;
11414;SDS011;5763;42.714;23.244;2023-03-02T00:26:19;4.45;;;3.72;;
11414;SDS011;5763;42.714;23.244;2023-03-02T00:28:46;3.78;;;3.35;;
11414;SDS011;5763;42.714;23.244;2023-03-02T00:31:13;3.88;;;3.10;;
11414;SDS011;5763;42.714;23.244;2023-03-02T00:33:40;3.03;;;2.72;;
11414;SDS011;5763;42.714;23.244;2023-03-02T00:36:13;3.83;;;2.80;;
11414;SDS011;5763;42.714;23.244;2023-03-02T00:38:41;2.88;;;2.60;;
11414;SDS011;5763;42.714;23.244;2023-03-02T00:41:09;3.03;;;2.65;;
11414;SDS011;5763;42.714;23.244;2023-03-02T00:43:37;3.17;;;2.78;;
11414;SDS011;5763;42.714;23.244;2023-03-02T00:46:09;3.20;;;2.90;;
11414;SDS011;5763;42.714;23.244;2023-03-02T00:48:36;3.08;;;2.72;;
11414;SDS011;5763;42.714;23.244;2023-03-02T00:51:03;3.03;;;2.53;;
11414;SDS011;5763;42.714;23.244;2023-03-02T00:53:30;2.70;;;2.38;;
11414;SDS011;5763;42.714;23.244;2023-03-02T00:55:57;2.60;;;2.40;;
11414;SDS011;5763;42.714;23.244;2023-03-02T00:58:25;3.00;;;2.33;;
11414;SDS011;5763;42.714;23.244;2023-03-02T01:00:53;4.47;;;2.50;;
11414;SDS011;5763;42.714;23.244;2023-03-02T01:03:20;3.72;;;3.15;;
11414;SDS011;5763;42.714;23.244;2023-03-02T01:05:47;3.95;;;3.50;;
11414;SDS011;5763;42.714;23.244;2023-03-02T01:08:20;4.13;;;3.72;;
11414;SDS011;5763;42.714;23.244;2023-03-02T01:10:47;3.67;;;3.33;;
11414;SDS011;5763;42.714;23.244;2023-03-02T01:13:14;3.13;;;2.90;;
11414;SDS011;5763;42.714;23.244;2023-03-02T01:15:41;5.25;;;2.97;;
11414;SDS011;5763;42.714;23.244;2023-03-02T01:18:09;3.95;;;2.60;;
11414;SDS011;5763;42.714;23.244;2023-03-02T01:20:35;2.97;;;2.33;;
11414;SDS011;5763;42.714;23.244;2023-03-02T01:23:02;3.08;;;2.50;;
11414;SDS011;5763;42.714;23.244;2023-03-02T01:25:29;2.17;;;1.90;;
11414;SDS011;5763;42.714;23.244;2023-03-02T01:27:56;2.55;;;1.75;;
11414;SDS011;5763;42.714;23.244;2023-03-02T01:30:23;1.50;;;1.30;;
11414;SDS011;5763;42.714;23.244;2023-03-02T01:32:50;1.92;;;1.70;;
11414;SDS011;5763;42.714;23.244;2023-03-02T01:35:18;1.98;;;1.45;;
11414;SDS011;5763;42.714;23.244;2023-03-02T01:37:45;2.92;;;1.70;;
11414;SDS011;5763;42.714;23.244;2023-03-02T01:40:11;2.05;;;1.75;;
11414;SDS011;5763;42.714;23.244;2023-03-02T01:42:44;1.75;;;1.50;;
11414;SDS011;5763;42.714;23.244;2023-03-02T01:48:10;1.75;;;1.50;;
11414;SDS011;5763;42.714;23.244;2023-03-02T01:50:40;1.60;;;1.40;;
11414;SDS011;5763;42.714;23.244;2023-03-02T01:53:07;2.13;;;1.80;;
11414;SDS011;5763;42.714;23.244;2023-03-02T01:55:34;1.70;;;1.60;;
11414;SDS011;5763;42.714;23.244;2023-03-02T01:58:03;1.45;;;1.35;;
11414;SDS011;5763;42.714;23.244;2023-03-02T02:00:33;1.88;;;1.67;;
11414;SDS011;5763;42.714;23.244;2023-03-02T02:03:02;3.33;;;1.75;;
11414;SDS011;5763;42.714;23.244;2023-03-02T02:05:35;2.53;;;1.67;;
11414;SDS011;5763;42.714;23.244;2023-03-02T02:08:05;2.70;;;1.80;;
11414;SDS011;5763;42.714;23.244;2023-03-02T02:10:32;2.13;;;1.50;;
11414;SDS011;5763;42.714;23.244;2023-03-02T02:12:59;2.65;;;1.52;;
11414;SDS011;5763;42.714;23.244;2023-03-02T02:15:27;2.20;;;1.75;;
11414;SDS011;5763;42.714;23.244;2023-03-02T02:17:53;1.73;;;1.50;;
11414;SDS011;5763;42.714;23.244;2023-03-02T02:20:22;1.70;;;1.50;;
11414;SDS011;5763;42.714;23.244;2023-03-02T02:22:58;1.55;;;1.45;;
11414;SDS011;5763;42.714;23.244;2023-03-02T02:25:38;5.35;;;1.70;;
11414;SDS011;5763;42.714;23.244;2023-03-02T02:28:12;4.10;;;1.75;;
11414;SDS011;5763;42.714;23.244;2023-03-02T02:30:42;2.35;;;1.75;;
11414;SDS011;5763;42.714;23.244;2023-03-02T02:33:11;2.40;;;1.75;;
11414;SDS011;5763;42.714;23.244;2023-03-02T02:35:41;2.47;;;2.00;;
11414;SDS011;5763;42.714;23.244;2023-03-02T02:38:10;2.25;;;1.60;;
11414;SDS011;5763;42.714;23.244;2023-03-02T02:40:40;1.67;;;1.52;;
11414;SDS011;5763;42.714;23.244;2023-03-02T02:43:13;3.10;;;1.42;;
11414;SDS011;5763;42.714;23.244;2023-03-02T02:45:43;2.13;;;1.58;;
11414;SDS011;5763;42.714;23.244;2023-03-02T02:48:11;2.33;;;1.60;;
11414;SDS011;5763;42.714;23.244;2023-03-02T02:50:41;1.73;;;1.60;;
11414;SDS011;5763;42.714;23.244;2023-03-02T02:53:10;1.73;;;1.38;;
11414;SDS011;5763;42.714;23.244;2023-03-02T02:55:40;2.00;;;1.60;;
11414;SDS011;5763;42.714;23.244;2023-03-02T02:58:12;1.80;;;1.23;;
11414;SDS011;5763;42.714;23.244;2023-03-02T03:00:49;2.38;;;1.48;;
11414;SDS011;5763;42.714;23.244;2023-03-02T03:03:22;2.05;;;1.52;;
11414;SDS011;5763;42.714;23.244;2023-03-02T03:05:55;1.52;;;1.20;;
11414;SDS011;5763;42.714;23.244;2023-03-02T03:08:47;2.08;;;1.52;;
11414;SDS011;5763;42.714;23.244;2023-03-02T03:11:17;1.88;;;1.58;;
11414;SDS011;5763;42.714;23.244;2023-03-02T03:13:48;1.60;;;1.30;;
11414;SDS011;5763;42.714;23.244;2023-03-02T03:16:20;2.97;;;2.05;;
11414;SDS011;5763;42.714;23.244;2023-03-02T03:18:48;2.08;;;1.52;;
11414;SDS011;5763;42.714;23.244;2023-03-02T03:21:17;1.50;;;1.40;;
11414;SDS011;5763;42.714;23.244;2023-03-02T03:23:44;2.42;;;1.63;;
11414;SDS011;5763;42.714;23.244;2023-03-02T03:26:11;1.90;;;1.30;;
11414;SDS011;5763;42.714;23.244;2023-03-02T03:28:37;1.85;;;1.60;;
11414;SDS011;5763;42.714;23.244;2023-03-02T03:31:06;2.17;;;1.33;;
11414;SDS011;5763;42.714;23.244;2023-03-02T03:33:32;2.17;;;1.30;;
11414;SDS011;5763;42.714;23.244;2023-03-02T03:35:59;3.35;;;1.35;;
11414;SDS011;5763;42.714;23.244;2023-03-02T03:38:26;2.08;;;1.40;;
11414;SDS011;5763;42.714;23.244;2023-03-02T03:40:54;1.92;;;1.50;;
11414;SDS011;5763;42.714;23.244;2023-03-02T03:43:21;2.50;;;2.17;;
11414;SDS011;5763;42.714;23.244;2023-03-02T03:45:47;1.83;;;1.40;;
11414;SDS011;5763;42.714;23.244;2023-03-02T03:48:16;2.03;;;1.38;;
11414;SDS011;5763;42.714;23.244;2023-03-02T03:50:43;1.50;;;1.40;;
11414;SDS011;5763;42.714;23.244;2023-03-02T03:53:10;2.28;;;1.50;;
11414;SDS011;5763;42.714;23.244;2023-03-02T03:55:37;2.67;;;1.50;;
11414;SDS011;5763;42.714;23.244;2023-03-02T03:58:03;1.95;;;1.25;;
11414;SDS011;5763;42.714;23.244;2023-03-02T04:00:30;2.47;;;1.50;;
11414;SDS011;5763;42.714;23.244;2023-03-02T04:02:57;1.45;;;1.17;;
11414;SDS011;5763;42.714;23.244;2023-03-02T04:05:25;2.00;;;1.65;;
11414;SDS011;5763;42.714;23.244;2023-03-02T04:07:52;2.10;;;1.30;;
11414;SDS011;5763;42.714;23.244;2023-03-02T04:10:19;1.60;;;1.40;;
11414;SDS011;5763;42.714;23.244;2023-03-02T04:12:46;1.55;;;1.15;;
11414;SDS011;5763;42.714;23.244;2023-03-02T04:15:13;2.08;;;1.40;;
11414;SDS011;5763;42.714;23.244;2023-03-02T04:17:41;2.13;;;1.27;;
11414;SDS011;5763;42.714;23.244;2023-03-02T04:20:10;2.50;;;1.50;;
11414;SDS011;5763;42.714;23.244;2023-03-02T04:22:43;1.40;;;1.30;;
11414;SDS011;5763;42.714;23.244;2023-03-02T04:25:10;1.20;;;1.00;;
11414;SDS011;5763;42.714;23.244;2023-03-02T04:27:37;1.70;;;1.27;;
11414;SDS011;5763;42.714;23.244;2023-03-02T04:30:05;1.30;;;1.15;;
11414;SDS011;5763;42.714;23.244;2023-03-02T04:32:32;1.27;;;1.08;;
11414;SDS011;5763;42.714;23.244;2023-03-02T04:34:59;1.17;;;1.08;;
11414;SDS011;5763;42.714;23.244;2023-03-02T04:37:26;1.60;;;1.20;;
11414;SDS011;5763;42.714;23.244;2023-03-02T04:39:54;1.40;;;1.20;;
11414;SDS011;5763;42.714;23.244;2023-03-02T04:42:21;1.50;;;1.30;;
11414;SDS011;5763;42.714;23.244;2023-03-02T04:44:48;1.42;;;1.33;;
11414;SDS011;5763;42.714;23.244;2023-03-02T04:47:15;1.38;;;1.27;;
11414;SDS011;5763;42.714;23.244;2023-03-02T04:49:42;1.50;;;1.30;;
11414;SDS011;5763;42.714;23.244;2023-03-02T04:52:09;1.70;;;1.40;;
11414;SDS011;5763;42.714;23.244;2023-03-02T04:54:36;1.40;;;1.30;;
11414;SDS011;5763;42.714;23.244;2023-03-02T04:57:04;1.50;;;1.40;;
11414;SDS011;5763;42.714;23.244;2023-03-02T04:59:32;1.42;;;1.33;;
11414;SDS011;5763;42.714;23.244;2023-03-02T05:01:59;2.30;;;1.90;;
11414;SDS011;5763;42.714;23.244;2023-03-02T05:04:27;2.50;;;1.83;;
11414;SDS011;5763;42.714;23.244;2023-03-02T05:06:54;2.17;;;1.98;;
11414;SDS011;5763;42.714;23.244;2023-03-02T05:09:21;2.40;;;2.20;;
11414;SDS011;5763;42.714;23.244;2023-03-02T05:11:51;2.35;;;2.15;;
11414;SDS011;5763;42.714;23.244;2023-03-02T05:14:20;2.55;;;2.35;;
11414;SDS011;5763;42.714;23.244;2023-03-02T05:16:48;2.63;;;2.20;;
11414;SDS011;5763;42.714;23.244;2023-03-02T05:19:15;2.17;;;1.92;;
11414;SDS011;5763;42.714;23.244;2023-03-02T05:21:42;2.45;;;2.22;;
11414;SDS011;5763;42.714;23.244;2023-03-02T05:24:09;2.63;;;2.00;;
11414;SDS011;5763;42.714;23.244;2023-03-02T05:26:37;3.90;;;1.80;;
11414;SDS011;5763;42.714;23.244;2023-03-02T05:29:04;2.65;;;2.10;;
11414;SDS011;5763;42.714;23.244;2023-03-02T05:31:33;2.50;;;1.90;;
11414;SDS011;5763;42.714;23.244;2023-03-02T05:34:02;2.10;;;1.80;;
11414;SDS011;5763;42.714;23.244;2023-03-02T05:36:30;2.08;;;1.80;;
11414;SDS011;5763;42.714;23.244;2023-03-02T05:38:57;1.90;;;1.70;;
11414;SDS011;5763;42.714;23.244;2023-03-02T05:41:24;2.05;;;1.58;;
11414;SDS011;5763;42.714;23.244;2023-03-02T05:43:51;3.75;;;2.08;;
11414;SDS011;5763;42.714;23.244;2023-03-02T05:46:18;2.90;;;2.05;;
11414;SDS011;5763;42.714;23.244;2023-03-02T05:48:46;5.03;;;2.38;;
11414;SDS011;5763;42.714;23.244;2023-03-02T05:51:12;2.67;;;2.20;;
11414;SDS011;5763;42.714;23.244;2023-03-02T05:53:40;2.70;;;2.50;;
11414;SDS011;5763;42.714;23.244;2023-03-02T05:56:07;2.78;;;2.53;;
11414;SDS011;5763;42.714;23.244;2023-03-02T05:58:34;2.72;;;2.50;;
11414;SDS011;5763;42.714;23.244;2023-03-02T06:01:00;2.83;;;2.60;;
11414;SDS011;5763;42.714;23.244;2023-03-02T06:03:27;2.70;;;2.50;;
11414;SDS011;5763;42.714;23.244;2023-03-02T06:05:55;2.55;;;2.35;;
11414;SDS011;5763;42.714;23.244;2023-03-02T06:08:22;3.45;;;3.00;;
11414;SDS011;5763;42.714;23.244;2023-03-02T06:10:49;3.03;;;2.70;;
11414;SDS011;5763;42.714;23.244;2023-03-02T06:13:15;3.22;;;2.92;;
11414;SDS011;5763;42.714;23.244;2023-03-02T06:15:42;3.92;;;2.72;;
11414;SDS011;5763;42.714;23.244;2023-03-02T06:18:10;2.78;;;2.58;;
11414;SDS011;5763;42.714;23.244;2023-03-02T06:20:37;3.08;;;2.78;;
11414;SDS011;5763;42.714;23.244;2023-03-02T06:23:05;3.33;;;2.75;;
11414;SDS011;5763;42.714;23.244;2023-03-02T06:25:32;3.92;;;3.22;;
11414;SDS011;5763;42.714;23.244;2023-03-02T06:28:00;3.35;;;2.97;;
11414;SDS011;5763;42.714;23.244;2023-03-02T06:30:26;3.30;;;3.00;;
11414;SDS011;5763;42.714;23.244;2023-03-02T06:32:53;3.60;;;3.05;;
11414;SDS011;5763;42.714;23.244;2023-03-02T06:35:20;3.55;;;3.10;;
11414;SDS011;5763;42.714;23.244;2023-03-02T06:37:48;3.53;;;3.15;;
11414;SDS011;5763;42.714;23.244;2023-03-02T06:40:16;3.95;;;2.88;;
11414;SDS011;5763;42.714;23.244;2023-03-02T06:42:45;3.58;;;2.88;;
11414;SDS011;5763;42.714;23.244;2023-03-02T06:45:12;3.20;;;2.90;;
11414;SDS011;5763;42.714;23.244;2023-03-02T06:47:39;4.55;;;3.13;;
11414;SDS011;5763;42.714;23.244;2023-03-02T06:50:06;4.25;;;3.28;;
11414;SDS011;5763;42.714;23.244;2023-03-02T06:52:34;4.03;;;3.63;;
11414;SDS011;5763;42.714;23.244;2023-03-02T06:55:00;4.95;;;3.72;;
11414;SDS011;5763;42.714;23.244;2023-03-02T06:57:29;3.83;;;3.40;;
11414;SDS011;5763;42.714;23.244;2023-03-02T06:59:58;4.85;;;3.70;;
11414;SDS011;5763;42.714;23.244;2023-03-02T07:02:26;3.72;;;3.42;;
11414;SDS011;5763;42.714;23.244;2023-03-02T07:04:52;4.75;;;3.65;;
11414;SDS011;5763;42.714;23.244;2023-03-02T07:07:19;5.47;;;3.22;;
11414;SDS011;5763;42.714;23.244;2023-03-02T07:09:46;3.80;;;3.33;;
11414;SDS011;5763;42.714;23.244;2023-03-02T07:12:12;3.45;;;3.15;;
11414;SDS011;5763;42.714;23.244;2023-03-02T07:14:41;4.80;;;3.20;;
11414;SDS011;5763;42.714;23.244;2023-03-02T07:17:07;3.88;;;3.45;;
11414;SDS011;5763;42.714;23.244;2023-03-02T07:19:34;3.72;;;3.33;;
11414;SDS011;5763;42.714;23.244;2023-03-02T07:22:02;3.72;;;3.03;;
11414;SDS011;5763;42.714;23.244;2023-03-02T07:24:29;3.42;;;3.10;;
11414;SDS011;5763;42.714;23.244;2023-03-02T07:26:56;3.50;;;3.20;;
11414;SDS011;5763;42.714;23.244;2023-03-02T07:29:23;4.03;;;3.60;;
11414;SDS011;5763;42.714;23.244;2023-03-02T07:31:51;5.55;;;3.80;;
11414;SDS011;5763;42.714;23.244;2023-03-02T07:34:21;3.58;;;3.28;;
11414;SDS011;5763;42.714;23.244;2023-03-02T07:36:48;4.25;;;3.33;;
11414;SDS011;5763;42.714;23.244;2023-03-02T07:39:15;4.22;;;3.50;;
11414;SDS011;5763;42.714;23.244;2023-03-02T07:41:42;4.30;;;3.35;;
11414;SDS011;5763;42.714;23.244;2023-03-02T07:44:09;3.65;;;3.28;;
11414;SDS011;5763;42.714;23.244;2023-03-02T07:46:36;5.38;;;3.90;;
11414;SDS011;5763;42.714;23.244;2023-03-02T07:49:05;4.05;;;3.65;;
11414;SDS011;5763;42.714;23.244;2023-03-02T07:51:31;4.85;;;4.18;;
11414;SDS011;5763;42.714;23.244;2023-03-02T07:53:58;5.93;;;4.25;;
11414;SDS011;5763;42.714;23.244;2023-03-02T07:56:26;5.10;;;4.20;;
11414;SDS011;5763;42.714;23.244;2023-03-02T07:58:53;5.43;;;4.25;;
11414;SDS011;5763;42.714;23.244;2023-03-02T08:01:20;4.18;;;3.70;;
11414;SDS011;5763;42.714;23.244;2023-03-02T08:03:47;5.72;;;3.92;;
11414;SDS011;5763;42.714;23.244;2023-03-02T08:06:15;4.70;;;3.85;;
11414;SDS011;5763;42.714;23.244;2023-03-02T08:08:42;4.20;;;3.47;;
11414;SDS011;5763;42.714;23.244;2023-03-02T08:11:10;4.18;;;3.78;;
11414;SDS011;5763;42.714;23.244;2023-03-02T08:13:38;5.97;;;4.53;;
11414;SDS011;5763;42.714;23.244;2023-03-02T08:16:06;4.63;;;4.18;;
11414;SDS011;5763;42.714;23.244;2023-03-02T08:18:34;5.32;;;3.97;;
11414;SDS011;5763;42.714;23.244;2023-03-02T08:21:02;5.00;;;3.72;;
11414;SDS011;5763;42.714;23.244;2023-03-02T08:23:30;6.53;;;3.88;;
11414;SDS011;5763;42.714;23.244;2023-03-02T08:25:57;4.05;;;3.42;;
11414;SDS011;5763;42.714;23.244;2023-03-02T08:28:24;3.60;;;3.30;;
11414;SDS011;5763;42.714;23.244;2023-03-02T08:30:54;3.80;;;3.25;;
11414;SDS011;5763;42.714;23.244;2023-03-02T08:33:22;4.45;;;3.30;;
11414;SDS011;5763;42.714;23.244;2023-03-02T08:35:55;4.10;;;3.67;;
11414;SDS011;5763;42.714;23.244;2023-03-02T08:38:22;4.65;;;3.55;;
11414;SDS011;5763;42.714;23.244;2023-03-02T08:40:50;4.57;;;3.80;;
11414;SDS011;5763;42.714;23.244;2023-03-02T08:43:17;4.25;;;3.85;;
11414;SDS011;5763;42.714;23.244;2023-03-02T08:45:44;4.05;;;3.65;;
11414;SDS011;5763;42.714;23.244;2023-03-02T08:48:15;4.65;;;4.18;;
11414;SDS011;5763;42.714;23.244;2023-03-02T08:50:41;5.43;;;4.07;;
11414;SDS011;5763;42.714;23.244;2023-03-02T08:53:08;3.95;;;3.65;;
11414;SDS011;5763;42.714;23.244;2023-03-02T08:55:35;6.43;;;4.10;;
11414;SDS011;5763;42.714;23.244;2023-03-02T08:58:03;4.22;;;3.83;;
11414;SDS011;5763;42.714;23.244;2023-03-02T09:00:30;4.20;;;3.78;;
11414;SDS011;5763;42.714;23.244;2023-03-02T09:02:57;4.10;;;3.70;;
11414;SDS011;5763;42.714;23.244;2023-03-02T09:05:24;4.55;;;4.05;;
11414;SDS011;5763;42.714;23.244;2023-03-02T09:07:50;4.78;;;4.05;;
11414;SDS011;5763;42.714;23.244;2023-03-02T09:10:17;6.22;;;4.20;;
11414;SDS011;5763;42.714;23.244;2023-03-02T09:12:44;4.88;;;4.15;;
11414;SDS011;5763;42.714;23.244;2023-03-02T09:15:12;4.72;;;3.70;;
11414;SDS011;5763;42.714;23.244;2023-03-02T09:17:39;5.80;;;3.97;;
11414;SDS011;5763;42.714;23.244;2023-03-02T09:20:06;7.88;;;6.03;;
11414;SDS011;5763;42.714;23.244;2023-03-02T09:22:34;6.05;;;5.32;;
11414;SDS011;5763;42.714;23.244;2023-03-02T09:25:01;6.57;;;4.95;;
11414;SDS011;5763;42.714;23.244;2023-03-02T09:27:27;5.75;;;5.15;;
11414;SDS011;5763;42.714;23.244;2023-03-02T09:29:55;5.57;;;4.85;;
11414;SDS011;5763;42.714;23.244;2023-03-02T09:32:23;5.28;;;4.78;;
11414;SDS011;5763;42.714;23.244;2023-03-02T09:34:50;4.95;;;4.47;;
11414;SDS011;5763;42.714;23.244;2023-03-02T09:37:17;5.55;;;4.88;;
11414;SDS011;5763;42.714;23.244;2023-03-02T09:39:43;5.30;;;4.55;;
11414;SDS011;5763;42.714;23.244;2023-03-02T09:42:17;5.63;;;4.70;;
11414;SDS011;5763;42.714;23.244;2023-03-02T09:44:56;4.93;;;3.97;;
11414;SDS011;5763;42.714;23.244;2023-03-02T09:47:32;4.07;;;3.67;;
11414;SDS011;5763;42.714;23.244;2023-03-02T09:50:10;4.93;;;4.40;;
11414;SDS011;5763;42.714;23.244;2023-03-02T09:52:49;4.90;;;4.40;;
11414;SDS011;5763;42.714;23.244;2023-03-02T09:55:27;4.88;;;4.38;;
11414;SDS011;5763;42.714;23.244;2023-03-02T09:58:00;4.93;;;4.43;;
11414;SDS011;5763;42.714;23.244;2023-03-02T10:00:30;4.80;;;4.30;;
11414;SDS011;5763;42.714;23.244;2023-03-02T10:03:02;6.88;;;5.07;;
11414;SDS011;5763;42.714;23.244;2023-03-02T10:05:33;5.43;;;4.85;;
11414;SDS011;5763;42.714;23.244;2023-03-02T10:08:04;5.22;;;4.82;;
11414;SDS011;5763;42.714;23.244;2023-03-02T10:10:33;5.15;;;4.75;;
11414;SDS011;5763;42.714;23.244;2023-03-02T10:13:05;5.47;;;4.93;;
11414;SDS011;5763;42.714;23.244;2023-03-02T10:15:43;5.43;;;4.93;;
11414;SDS011;5763;42.714;23.244;2023-03-02T10:18:21;6.53;;;5.00;;
11414;SDS011;5763;42.714;23.244;2023-03-02T10:20:54;6.57;;;5.97;;
11414;SDS011;5763;42.714;23.244;2023-03-02T10:23:36;6.47;;;5.40;;
11414;SDS011;5763;42.714;23.244;2023-03-02T10:29:00;6.43;;;5.10;;
11414;SDS011;5763;42.714;23.244;2023-03-02T10:31:37;5.57;;;4.97;;
11414;SDS011;5763;42.714;23.244;2023-03-02T10:34:07;6.90;;;5.30;;
11414;SDS011;5763;42.714;23.244;2023-03-02T10:36:37;5.60;;;5.00;;
11414;SDS011;5763;42.714;23.244;2023-03-02T10:39:06;5.75;;;4.93;;
11414;SDS011;5763;42.714;23.244;2023-03-02T10:41:38;5.50;;;5.00;;
11414;SDS011;5763;42.714;23.244;2023-03-02T10:44:12;4.95;;;4.45;;
11414;SDS011;5763;42.714;23.244;2023-03-02T10:46:44;6.88;;;5.10;;
11414;SDS011;5763;42.714;23.244;2023-03-02T10:49:26;6.18;;;4.65;;
11414;SDS011;5763;42.714;23.244;2023-03-02T10:51:59;4.95;;;4.45;;
11414;SDS011;5763;42.714;23.244;2023-03-02T10:54:27;4.88;;;4.40;;
11414;SDS011;5763;42.714;23.244;2023-03-02T10:56:55;6.75;;;4.38;;
11414;SDS011;5763;42.714;23.244;2023-03-02T10:59:30;5.32;;;4.13;;
11414;SDS011;5763;42.714;23.244;2023-03-02T11:02:10;4.07;;;3.67;;
11414;SDS011;5763;42.714;23.244;2023-03-02T11:04:41;5.20;;;3.90;;
11414;SDS011;5763;42.714;23.244;2023-03-02T11:07:09;5.13;;;4.57;;
11414;SDS011;5763;42.714;23.244;2023-03-02T11:09:40;5.05;;;3.70;;
11414;SDS011;5763;42.714;23.244;2023-03-02T11:12:10;4.90;;;3.88;;
11414;SDS011;5763;42.714;23.244;2023-03-02T11:14:40;4.97;;;4.03;;
11414;SDS011;5763;42.714;23.244;2023-03-02T11:19:56;4.03;;;3.63;;
11414;SDS011;5763;42.714;23.244;2023-03-02T11:22:26;6.03;;;4.70;;
11414;SDS011;5763;42.714;23.244;2023-03-02T11:25:02;6.80;;;4.53;;
11414;SDS011;5763;42.714;23.244;2023-03-02T11:27:34;4.65;;;4.15;;
11414;SDS011;5763;42.714;23.244;2023-03-02T11:30:07;5.78;;;4.10;;
11414;SDS011;5763;42.714;23.244;2023-03-02T11:32:42;4.95;;;3.67;;
11414;SDS011;5763;42.714;23.244;2023-03-02T11:35:21;4.70;;;3.53;;
11414;SDS011;5763;42.714;23.244;2023-03-02T11:37:54;5.15;;;4.03;;
11414;SDS011;5763;42.714;23.244;2023-03-02T11:40:27;5.35;;;3.83;;
11414;SDS011;5763;42.714;23.244;2023-03-02T11:42:58;4.88;;;4.28;;
11414;SDS011;5763;42.714;23.244;2023-03-02T11:45:29;4.13;;;3.72;;
11414;SDS011;5763;42.714;23.244;2023-03-02T11:48:01;4.32;;;3.88;;
11414;SDS011;5763;42.714;23.244;2023-03-02T11:50:33;3.53;;;3.22;;
11414;SDS011;5763;42.714;23.244;2023-03-02T11:53:09;4.78;;;3.53;;
11414;SDS011;5763;42.714;23.244;2023-03-02T11:55:41;3.63;;;3.33;;
11414;SDS011;5763;42.714;23.244;2023-03-02T11:58:10;3.83;;;2.97;;
11414;SDS011;5763;42.714;23.244;2023-03-02T12:00:42;3.10;;;2.80;;
11414;SDS011;5763;42.714;23.244;2023-03-02T12:03:17;3.92;;;3.28;;
11414;SDS011;5763;42.714;23.244;2023-03-02T12:05:59;4.25;;;3.25;;
11414;SDS011;5763;42.714;23.244;2023-03-02T12:08:30;3.92;;;3.20;;
11414;SDS011;5763;42.714;23.244;2023-03-02T12:11:00;3.58;;;3.25;;
11414;SDS011;5763;42.714;23.244;2023-03-02T12:13:29;4.85;;;3.83;;
11414;SDS011;5763;42.714;23.244;2023-03-02T12:15:57;3.97;;;3.08;;
11414;SDS011;5763;42.714;23.244;2023-03-02T12:21:11;5.30;;;3.33;;
11414;SDS011;5763;42.714;23.244;2023-03-02T12:23:41;4.07;;;3.40;;
11414;SDS011;5763;42.714;23.244;2023-03-02T12:26:23;3.80;;;3.42;;
11414;SDS011;5763;42.714;23.244;2023-03-02T12:28:57;4.13;;;3.50;;
11414;SDS011;5763;42.714;23.244;2023-03-02T12:31:38;6.25;;;3.90;;
11414;SDS011;5763;42.714;23.244;2023-03-02T12:36:59;4.95;;;3.65;;
11414;SDS011;5763;42.714;23.244;2023-03-02T12:39:32;5.68;;;3.95;;
11414;SDS011;5763;42.714;23.244;2023-03-02T12:42:21;5.10;;;3.90;;
11414;SDS011;5763;42.714;23.244;2023-03-02T12:45:18;4.80;;;3.78;;
11414;SDS011;5763;42.714;23.244;2023-03-02T12:47:56;5.22;;;4.22;;
11414;SDS011;5763;42.714;23.244;2023-03-02T12:50:27;4.55;;;3.80;;
11414;SDS011;5763;42.714;23.244;2023-03-02T12:52:58;5.70;;;3.80;;
11414;SDS011;5763;42.714;23.244;2023-03-02T12:55:26;7.13;;;3.60;;
11414;SDS011;5763;42.714;23.244;2023-03-02T12:57:54;6.78;;;3.70;;
11414;SDS011;5763;42.714;23.244;2023-03-02T13:00:23;3.70;;;3.30;;
11414;SDS011;5763;42.714;23.244;2023-03-02T13:02:52;4.35;;;3.70;;
11414;SDS011;5763;42.714;23.244;2023-03-02T13:05:21;3.25;;;2.80;;
11414;SDS011;5763;42.714;23.244;2023-03-02T13:07:51;5.13;;;3.08;;
11414;SDS011;5763;42.714;23.244;2023-03-02T13:10:26;3.85;;;3.08;;
11414;SDS011;5763;42.714;23.244;2023-03-02T13:12:56;4.68;;;3.30;;
11414;SDS011;5763;42.714;23.244;2023-03-02T13:15:24;3.95;;;3.42;;
11414;SDS011;5763;42.714;23.244;2023-03-02T13:17:52;4.07;;;3.28;;
11414;SDS011;5763;42.714;23.244;2023-03-02T13:20:19;5.15;;;3.28;;
11414;SDS011;5763;42.714;23.244;2023-03-02T13:22:47;4.18;;;3.08;;
11414;SDS011;5763;42.714;23.244;2023-03-02T13:25:19;5.97;;;2.97;;
11414;SDS011;5763;42.714;23.244;2023-03-02T13:27:53;4.65;;;3.78;;
11414;SDS011;5763;42.714;23.244;2023-03-02T13:30:22;4.15;;;3.75;;
11414;SDS011;5763;42.714;23.244;2023-03-02T13:32:52;4.07;;;3.67;;
11414;SDS011;5763;42.714;23.244;2023-03-02T13:35:24;5.72;;;3.45;;
11414;SDS011;5763;42.714;23.244;2023-03-02T13:37:54;4.30;;;3.42;;
11414;SDS011;5763;42.714;23.244;2023-03-02T13:40:29;5.50;;;3.65;;
11414;SDS011;5763;42.714;23.244;2023-03-02T13:43:14;5.40;;;3.28;;
11414;SDS011;5763;42.714;23.244;2023-03-02T13:45:49;3.97;;;3.60;;
11414;SDS011;5763;42.714;23.244;2023-03-02T13:48:17;5.95;;;3.58;;
11414;SDS011;5763;42.714;23.244;2023-03-02T13:50:49;4.30;;;3.58;;
11414;SDS011;5763;42.714;23.244;2023-03-02T13:53:18;4.68;;;3.90;;
11414;SDS011;5763;42.714;23.244;2023-03-02T13:55:46;5.22;;;4.43;;
11414;SDS011;5763;42.714;23.244;2023-03-02T13:58:15;6.57;;;4.82;;
11414;SDS011;5763;42.714;23.244;2023-03-02T14:00:44;6.13;;;4.32;;
11414;SDS011;5763;42.714;23.244;2023-03-02T14:03:16;6.78;;;4.45;;
11414;SDS011;5763;42.714;23.244;2023-03-02T14:05:47;6.03;;;4.30;;
11414;SDS011;5763;42.714;23.244;2023-03-02T14:08:15;5.10;;;4.20;;
11414;SDS011;5763;42.714;23.244;2023-03-02T14:10:42;7.07;;;4.65;;
11414;SDS011;5763;42.714;23.244;2023-03-02T14:13:10;5.28;;;4.28;;
11414;SDS011;5763;42.714;23.244;2023-03-02T14:15:44;7.05;;;4.45;;
11414;SDS011;5763;42.714;23.244;2023-03-02T14:18:19;6.57;;;5.32;;
11414;SDS011;5763;42.714;23.244;2023-03-02T14:20:51;7.15;;;5.22;;
11414;SDS011;5763;42.714;23.244;2023-03-02T14:23:18;9.63;;;5.75;;
11414;SDS011;5763;42.714;23.244;2023-03-02T14:25:45;5.18;;;4.57;;
11414;SDS011;5763;42.714;23.244;2023-03-02T14:28:12;5.45;;;4.47;;
11414;SDS011;5763;42.714;23.244;2023-03-02T14:30:45;7.63;;;4.00;;
11414;SDS011;5763;42.714;23.244;2023-03-02T14:33:12;4.95;;;3.85;;
11414;SDS011;5763;42.714;23.244;2023-03-02T14:35:41;4.93;;;4.00;;
11414;SDS011;5763;42.714;23.244;2023-03-02T14:38:09;3.92;;;3.55;;
11414;SDS011;5763;42.714;23.244;2023-03-02T14:40:36;5.00;;;4.00;;
11414;SDS011;5763;42.714;23.244;2023-03-02T14:43:03;5.93;;;3.70;;
11414;SDS011;5763;42.714;23.244;2023-03-02T14:45:30;5.22;;;3.85;;
11414;SDS011;5763;42.714;23.244;2023-03-02T14:47:59;5.03;;;3.80;;
11414;SDS011;5763;42.714;23.244;2023-03-02T14:50:25;6.43;;;3.88;;
11414;SDS011;5763;42.714;23.244;2023-03-02T14:52:52;6.10;;;4.40;;
11414;SDS011;5763;42.714;23.244;2023-03-02T14:55:21;6.00;;;3.83;;
11414;SDS011;5763;42.714;23.244;2023-03-02T14:57:52;7.20;;;4.38;;
11414;SDS011;5763;42.714;23.244;2023-03-02T15:00:21;5.80;;;4.53;;
11414;SDS011;5763;42.714;23.244;2023-03-02T15:02:48;5.13;;;3.75;;
11414;SDS011;5763;42.714;23.244;2023-03-02T15:05:16;4.97;;;3.38;;
11414;SDS011;5763;42.714;23.244;2023-03-02T15:07:43;4.15;;;3.53;;
11414;SDS011;5763;42.714;23.244;2023-03-02T15:10:11;4.00;;;3.58;;
11414;SDS011;5763;42.714;23.244;2023-03-02T15:12:39;5.80;;;3.83;;
11414;SDS011;5763;42.714;23.244;2023-03-02T15:15:07;5.57;;;3.97;;